createdAt,value
2017-12-27T00:00:14.252Z,95.20
2017-12-27T00:02:47.544Z,95.00
2017-12-27T00:05:34.878Z,95.20
2017-12-27T00:08:08.959Z,95.20
2017-12-27T00:10:42.343Z,95.10
2017-12-27T00:13:15.740Z,95.10
2017-12-27T00:15:49.047Z,95.10
2017-12-27T00:18:22.490Z,95.20
2017-12-27T00:20:56.540Z,95.50
2017-12-27T00:23:29.803Z,95.50
2017-12-27T00:26:03.906Z,95.50
2017-12-27T00:28:38.008Z,95.50
2017-12-27T00:31:10.465Z,95.40
2017-12-27T00:33:38.078Z,95.50
2017-12-27T00:36:05.795Z,95.20
2017-12-27T00:38:33.380Z,95.50
2017-12-27T00:41:00.973Z,95.50
2017-12-27T00:43:28.612Z,95.70
2017-12-27T00:45:56.253Z,95.40
2017-12-27T00:48:23.858Z,95.60
2017-12-27T00:50:52.260Z,95.40
2017-12-27T00:53:19.884Z,95.40
2017-12-27T00:55:47.495Z,95.30
2017-12-27T00:58:15.113Z,95.40
2017-12-27T01:00:42.712Z,95.10
2017-12-27T01:03:11.161Z,95.50
2017-12-27T01:05:39.596Z,95.60
2017-12-27T01:08:07.193Z,95.50
2017-12-27T01:10:34.829Z,95.30
2017-12-27T01:13:02.430Z,95.40
2017-12-27T01:15:30.075Z,95.60
2017-12-27T01:17:57.695Z,95.60
2017-12-27T01:20:26.100Z,95.70
2017-12-27T01:22:54.481Z,95.40
2017-12-27T01:25:22.848Z,95.50
2017-12-27T01:27:51.198Z,95.80
2017-12-27T01:30:18.842Z,96.10
2017-12-27T01:32:46.442Z,95.70
2017-12-27T01:35:14.052Z,95.60
2017-12-27T01:37:41.672Z,95.60
2017-12-27T01:40:09.307Z,95.60
2017-12-27T01:42:36.929Z,95.80
2017-12-27T01:45:05.340Z,95.90
2017-12-27T01:47:32.950Z,95.90
2017-12-27T01:50:00.569Z,95.90
2017-12-27T01:52:28.196Z,95.80
2017-12-27T01:54:55.812Z,95.80
2017-12-27T01:57:23.476Z,96.00
2017-12-27T01:59:51.051Z,96.00
2017-12-27T02:02:18.689Z,96.20
2017-12-27T02:04:47.102Z,96.10
2017-12-27T02:07:14.719Z,96.10
2017-12-27T02:09:42.330Z,96.20
2017-12-27T02:12:10.278Z,96.00
2017-12-27T02:14:38.651Z,96.40
2017-12-27T02:17:07.009Z,96.00
2017-12-27T02:19:34.627Z,96.00
2017-12-27T02:22:02.232Z,96.00
2017-12-27T02:24:29.836Z,95.90
2017-12-27T02:26:58.196Z,96.20
2017-12-27T02:29:26.570Z,96.50
2017-12-27T02:31:54.200Z,96.40
2017-12-27T02:34:21.834Z,96.50
2017-12-27T02:36:49.462Z,96.90
2017-12-27T02:39:28.698Z,97.20
2017-12-27T02:41:56.507Z,96.70
2017-12-27T02:44:24.849Z,96.80
2017-12-27T02:46:52.464Z,96.80
2017-12-27T02:49:20.088Z,97.40
2017-12-27T02:51:47.674Z,97.40
2017-12-27T02:54:16.829Z,97.80
2017-12-27T02:56:44.427Z,97.80
2017-12-27T02:59:12.081Z,97.70
2017-12-27T03:01:39.670Z,97.80
2017-12-27T03:04:07.386Z,97.80
2017-12-27T03:06:34.985Z,98.10
2017-12-27T03:09:02.576Z,98.20
2017-12-27T03:11:30.951Z,98.30
2017-12-27T03:13:59.297Z,98.10
2017-12-27T03:16:26.913Z,98.10
2017-12-27T03:18:54.518Z,98.70
2017-12-27T03:21:22.157Z,98.40
2017-12-27T03:23:49.769Z,98.80
2017-12-27T03:26:17.361Z,98.80
2017-12-27T03:28:44.966Z,99.10
2017-12-27T03:31:12.563Z,99.00
2017-12-27T03:33:40.192Z,99.00
2017-12-27T03:36:07.792Z,99.40
2017-12-27T03:38:35.411Z,99.00
2017-12-27T03:41:03.759Z,99.10
2017-12-27T03:43:31.354Z,99.10
2017-12-27T03:45:59.768Z,99.30
2017-12-27T03:48:27.387Z,99.30
2017-12-27T03:50:55.018Z,99.40
2017-12-27T03:53:23.384Z,99.00
2017-12-27T03:55:51.016Z,99.00
2017-12-27T03:58:19.373Z,99.60
2017-12-27T04:00:46.972Z,99.60
2017-12-27T04:03:15.354Z,99.10
2017-12-27T04:05:43.707Z,99.30
2017-12-27T04:08:11.331Z,99.30
2017-12-27T04:10:38.917Z,99.20
2017-12-27T04:13:06.541Z,99.50
2017-12-27T04:15:34.109Z,99.10
2017-12-27T04:18:01.713Z,99.10
2017-12-27T04:20:29.357Z,99.30
2017-12-27T04:22:56.955Z,99.20
2017-12-27T04:25:24.556Z,99.10
2017-12-27T04:27:52.950Z,99.30
2017-12-27T04:30:20.566Z,99.30
2017-12-27T04:32:48.212Z,99.30
2017-12-27T04:35:15.806Z,99.30
2017-12-27T04:37:43.406Z,99.40
2017-12-27T04:40:11.800Z,99.40
2017-12-27T04:42:39.389Z,99.40
2017-12-27T04:45:07.012Z,99.30
2017-12-27T04:47:35.365Z,99.20
2017-12-27T04:50:03.012Z,99.20
2017-12-27T04:52:30.624Z,99.20
2017-12-27T04:54:59.006Z,99.30
2017-12-27T04:57:26.692Z,99.20
2017-12-27T04:59:55.075Z,99.20
2017-12-27T05:02:22.691Z,99.20
2017-12-27T05:04:50.268Z,99.40
2017-12-27T05:07:17.865Z,99.70
2017-12-27T05:09:46.246Z,99.40
2017-12-27T05:12:14.640Z,99.10
2017-12-27T05:14:42.245Z,99.10
2017-12-27T05:17:09.886Z,98.90
2017-12-27T05:19:37.501Z,98.70
2017-12-27T05:22:05.100Z,98.80
2017-12-27T05:24:32.729Z,98.90
2017-12-27T05:27:00.329Z,98.70
2017-12-27T05:29:28.683Z,98.90
2017-12-27T05:31:56.297Z,98.90
2017-12-27T05:34:23.886Z,99.20
2017-12-27T05:36:51.521Z,99.00
2017-12-27T05:39:19.157Z,99.00
2017-12-27T05:41:46.788Z,98.80
2017-12-27T05:44:14.413Z,98.70
2017-12-27T05:46:42.071Z,98.80
2017-12-27T05:49:10.463Z,98.70
2017-12-27T05:51:38.819Z,98.80
2017-12-27T05:54:06.436Z,98.80
2017-12-27T05:56:34.048Z,98.70
2017-12-27T05:59:01.651Z,98.80
2017-12-27T06:01:29.309Z,99.00
2017-12-27T06:03:56.910Z,99.00
2017-12-27T06:06:24.539Z,99.10
2017-12-27T06:08:52.178Z,99.20
2017-12-27T06:11:19.757Z,99.20
2017-12-27T06:13:47.399Z,99.20
2017-12-27T06:16:15.042Z,99.10
2017-12-27T06:18:42.778Z,99.20
2017-12-27T06:21:10.444Z,99.40
2017-12-27T06:23:38.050Z,99.20
2017-12-27T06:26:05.696Z,99.40
2017-12-27T06:28:33.304Z,99.30
2017-12-27T06:31:01.217Z,99.30
2017-12-27T06:33:28.813Z,99.30
2017-12-27T06:35:56.419Z,99.00
2017-12-27T06:38:24.072Z,99.00
2017-12-27T06:40:51.708Z,99.40
2017-12-27T06:43:19.320Z,99.10
2017-12-27T06:45:46.910Z,99.10
2017-12-27T06:48:14.541Z,99.00
2017-12-27T06:50:42.178Z,99.10
2017-12-27T06:53:09.801Z,98.80
2017-12-27T06:55:38.174Z,99.00
2017-12-27T06:58:06.585Z,98.90
2017-12-27T07:00:34.172Z,99.20
2017-12-27T07:03:01.773Z,99.00
2017-12-27T07:05:29.397Z,98.90
2017-12-27T07:07:57.167Z,99.10
2017-12-27T07:10:24.783Z,99.10
2017-12-27T07:12:53.160Z,99.40
2017-12-27T07:15:21.558Z,99.40
2017-12-27T07:17:49.923Z,99.10
2017-12-27T07:20:17.654Z,99.10
2017-12-27T07:22:45.302Z,99.40
2017-12-27T07:25:12.948Z,99.20
2017-12-27T07:27:41.338Z,99.30
2017-12-27T07:30:08.962Z,99.30
2017-12-27T07:32:36.583Z,99.30
2017-12-27T07:35:04.250Z,99.20
2017-12-27T07:37:32.241Z,99.30
2017-12-27T07:39:59.944Z,99.20
2017-12-27T07:42:27.591Z,99.30
2017-12-27T07:44:55.216Z,99.30
2017-12-27T07:47:22.848Z,99.10
2017-12-27T07:49:50.451Z,99.10
2017-12-27T07:52:18.106Z,99.10
2017-12-27T07:54:46.505Z,98.90
2017-12-27T07:57:14.141Z,98.90
2017-12-27T07:59:41.773Z,98.80
2017-12-27T08:02:09.431Z,98.80
2017-12-27T08:04:37.093Z,98.70
2017-12-27T08:07:04.738Z,98.70
2017-12-27T08:09:32.337Z,98.70
2017-12-27T08:11:59.942Z,98.60
2017-12-27T08:14:28.330Z,98.70
2017-12-27T08:16:56.734Z,98.70
2017-12-27T08:19:24.342Z,98.70
2017-12-27T08:21:51.936Z,98.70
2017-12-27T08:24:20.345Z,98.50
2017-12-27T08:26:47.990Z,98.50
2017-12-27T08:29:15.604Z,98.50
2017-12-27T08:31:43.234Z,98.40
2017-12-27T08:34:11.654Z,98.20
2017-12-27T08:36:39.273Z,98.20
2017-12-27T08:39:06.868Z,98.10
2017-12-27T08:41:34.509Z,98.10
2017-12-27T08:44:02.922Z,98.00
2017-12-27T08:46:30.513Z,98.00
2017-12-27T08:48:58.116Z,97.70
2017-12-27T08:51:25.797Z,97.50
2017-12-27T08:53:54.184Z,97.40
2017-12-27T08:56:21.818Z,97.30
2017-12-27T08:58:49.474Z,97.30
2017-12-27T09:01:17.074Z,97.20
2017-12-27T09:03:45.783Z,96.90
2017-12-27T09:06:13.383Z,96.90
2017-12-27T09:08:41.001Z,96.50
2017-12-27T09:11:09.403Z,96.30
2017-12-27T09:13:37.316Z,96.30
2017-12-27T09:16:04.916Z,96.40
2017-12-27T09:18:33.294Z,95.80
2017-12-27T09:21:00.913Z,95.80
2017-12-27T09:23:28.576Z,95.40
2017-12-27T09:25:56.230Z,95.40
2017-12-27T09:28:23.983Z,95.00
2017-12-27T09:30:52.363Z,94.60
2017-12-27T09:33:19.984Z,94.50
2017-12-27T09:35:47.636Z,95.10
2017-12-27T09:38:15.238Z,95.10
2017-12-27T09:40:42.874Z,94.60
2017-12-27T09:43:10.505Z,94.70
2017-12-27T09:45:38.138Z,94.40
2017-12-27T09:48:06.136Z,94.50
2017-12-27T09:50:33.841Z,94.40
2017-12-27T09:53:01.546Z,94.50
2017-12-27T09:55:29.936Z,94.40
2017-12-27T09:57:57.541Z,94.40
2017-12-27T10:00:25.178Z,94.40
2017-12-27T10:02:53.610Z,94.10
2017-12-27T10:05:21.217Z,94.10
2017-12-27T10:07:49.611Z,93.70
2017-12-27T10:10:18.006Z,93.60
2017-12-27T10:12:45.625Z,93.60
2017-12-27T10:15:13.426Z,93.00
2017-12-27T10:17:41.049Z,93.00
2017-12-27T10:20:08.633Z,92.70
2017-12-27T10:22:36.265Z,92.40
2017-12-27T10:25:03.866Z,92.00
2017-12-27T10:27:31.524Z,92.50
2017-12-27T10:29:59.175Z,92.30
2017-12-27T10:32:26.779Z,91.90
2017-12-27T10:34:54.424Z,91.90
2017-12-27T10:37:22.070Z,91.90
2017-12-27T10:39:49.680Z,91.70
2017-12-27T10:42:18.097Z,91.60
2017-12-27T10:44:45.776Z,91.60
2017-12-27T10:47:13.403Z,91.10
2017-12-27T10:49:41.028Z,91.80
2017-12-27T10:52:08.670Z,91.40
2017-12-27T10:54:36.304Z,91.30
2017-12-27T10:57:04.721Z,91.50
2017-12-27T10:59:32.321Z,91.50
2017-12-27T11:01:59.969Z,91.40
2017-12-27T11:04:27.569Z,91.30
2017-12-27T11:06:55.976Z,91.00
2017-12-27T11:09:24.386Z,91.00
2017-12-27T11:11:52.017Z,91.00
2017-12-27T11:14:20.430Z,90.40
2017-12-27T11:16:48.072Z,90.30
2017-12-27T11:19:16.528Z,90.00
2017-12-27T11:21:44.149Z,90.00
2017-12-27T11:24:11.775Z,90.20
2017-12-27T11:26:39.401Z,90.30
2017-12-27T11:29:06.993Z,88.80
2017-12-27T11:31:34.652Z,88.70
2017-12-27T11:34:02.255Z,90.00
2017-12-27T11:36:30.687Z,89.80
2017-12-27T11:38:58.351Z,89.70
2017-12-27T11:41:25.991Z,88.30
2017-12-27T11:43:53.600Z,88.00
2017-12-27T11:46:21.239Z,87.40
2017-12-27T11:48:49.014Z,86.70
2017-12-27T11:51:16.639Z,86.90
2017-12-27T11:53:45.053Z,85.80
2017-12-27T11:56:12.730Z,85.80
2017-12-27T11:58:40.387Z,85.50
2017-12-27T12:01:08.119Z,86.10
2017-12-27T12:03:36.542Z,85.00
2017-12-27T12:06:04.282Z,84.90
2017-12-27T12:08:31.945Z,85.20
2017-12-27T12:10:59.613Z,83.70
2017-12-27T12:13:27.980Z,81.30
2017-12-27T12:15:55.618Z,81.20
2017-12-27T12:18:23.226Z,84.60
2017-12-27T12:20:51.635Z,86.50
2017-12-27T12:23:19.254Z,86.40
2017-12-27T12:25:46.921Z,87.00
2017-12-27T12:28:14.566Z,86.10
2017-12-27T12:30:42.157Z,86.70
2017-12-27T12:33:09.777Z,86.60
2017-12-27T12:35:37.388Z,85.90
2017-12-27T12:38:05.012Z,86.30
2017-12-27T12:40:32.688Z,86.50
2017-12-27T12:43:00.457Z,85.70
2017-12-27T12:45:28.074Z,86.40
2017-12-27T12:47:56.415Z,86.70
2017-12-27T12:50:24.053Z,86.70
2017-12-27T12:52:51.700Z,87.60
2017-12-27T12:55:20.054Z,87.70
2017-12-27T12:57:48.459Z,88.70
2017-12-27T13:00:16.883Z,88.10
2017-12-27T13:02:44.504Z,88.10
2017-12-27T13:05:12.899Z,88.80
2017-12-27T13:07:41.305Z,86.90
2017-12-27T13:10:08.998Z,86.90
2017-12-27T13:12:36.656Z,87.20
2017-12-27T13:15:04.272Z,87.60
2017-12-27T13:17:31.935Z,87.60
2017-12-27T13:20:00.504Z,88.30
2017-12-27T13:22:28.173Z,88.30
2017-12-27T13:24:55.899Z,88.90
2017-12-27T13:27:23.523Z,88.70
2017-12-27T13:29:51.929Z,89.10
2017-12-27T13:32:19.552Z,89.00
2017-12-27T13:34:47.175Z,89.10
2017-12-27T13:37:15.103Z,89.00
2017-12-27T13:39:43.524Z,88.00
2017-12-27T13:42:11.171Z,87.90
2017-12-27T13:44:39.573Z,88.90
2017-12-27T13:47:07.376Z,88.90
2017-12-27T13:49:35.043Z,88.60
2017-12-27T13:52:02.742Z,88.70
2017-12-27T13:54:30.408Z,89.30
2017-12-27T13:56:58.046Z,88.50
2017-12-27T13:59:25.742Z,88.10
2017-12-27T14:01:53.349Z,89.20
2017-12-27T14:04:20.953Z,89.00
2017-12-27T14:06:48.568Z,89.00
2017-12-27T14:09:16.927Z,89.90
2017-12-27T14:11:44.638Z,89.90
2017-12-27T14:14:13.001Z,90.00
2017-12-27T14:16:41.340Z,90.00
2017-12-27T14:19:08.981Z,90.00
2017-12-27T14:21:36.605Z,89.90
2017-12-27T14:24:05.520Z,90.40
2017-12-27T14:26:34.031Z,90.00
2017-12-27T14:29:01.676Z,90.00
2017-12-27T14:31:29.318Z,90.20
2017-12-27T14:33:57.747Z,90.20
2017-12-27T14:36:26.196Z,90.20
2017-12-27T14:38:54.593Z,90.30
2017-12-27T14:41:22.952Z,90.80
2017-12-27T14:43:51.358Z,90.80
2017-12-27T14:46:18.958Z,90.80
2017-12-27T14:48:47.391Z,90.80
2017-12-27T14:51:15.047Z,90.80
2017-12-27T14:53:43.408Z,90.80
2017-12-27T14:56:11.831Z,90.80
2017-12-27T14:58:39.582Z,90.80
2017-12-27T15:01:07.202Z,90.50
2017-12-27T15:03:34.846Z,90.60
2017-12-27T15:06:02.511Z,90.80
2017-12-27T15:08:30.104Z,90.70
2017-12-27T15:10:57.966Z,90.50
2017-12-27T15:13:25.564Z,90.30
2017-12-27T15:15:53.168Z,90.60
2017-12-27T15:18:20.835Z,90.70
2017-12-27T15:20:48.495Z,90.60
2017-12-27T15:23:16.140Z,90.70
2017-12-27T15:25:44.489Z,90.90
2017-12-27T15:28:12.113Z,90.90
2017-12-27T15:30:39.779Z,90.70
2017-12-27T15:33:07.386Z,90.70
2017-12-27T15:35:35.028Z,90.90
2017-12-27T15:38:02.654Z,90.90
2017-12-27T15:40:31.045Z,91.10
2017-12-27T15:42:58.732Z,91.10
2017-12-27T15:45:26.411Z,91.20
2017-12-27T15:47:54.103Z,91.40
2017-12-27T15:50:21.756Z,91.30
2017-12-27T15:52:49.434Z,91.50
2017-12-27T15:55:17.092Z,91.30
2017-12-27T15:57:44.796Z,91.40
2017-12-27T16:00:13.233Z,91.40
2017-12-27T16:02:40.862Z,91.40
2017-12-27T16:05:09.264Z,91.30
2017-12-27T16:07:36.937Z,91.20
2017-12-27T16:10:04.587Z,91.20
2017-12-27T16:12:32.208Z,91.30
2017-12-27T16:14:59.879Z,91.30
2017-12-27T16:17:27.644Z,91.40
2017-12-27T16:19:56.076Z,92.00
2017-12-27T16:22:23.791Z,91.70
2017-12-27T16:24:51.442Z,91.70
2017-12-27T16:27:19.075Z,91.80
2017-12-27T16:29:46.736Z,91.80
2017-12-27T16:32:14.440Z,92.10
2017-12-27T16:34:42.133Z,92.10
2017-12-27T16:37:09.769Z,92.30
2017-12-27T16:39:37.694Z,92.30
2017-12-27T16:42:05.424Z,92.50
2017-12-27T16:44:33.089Z,92.70
2017-12-27T16:47:00.765Z,92.70
2017-12-27T16:49:28.439Z,92.90
2017-12-27T16:51:56.241Z,93.00
2017-12-27T16:54:23.881Z,93.10
2017-12-27T16:56:51.581Z,93.20
2017-12-27T16:59:19.961Z,93.50
2017-12-27T17:01:47.591Z,93.50
2017-12-27T17:04:15.258Z,93.50
2017-12-27T17:06:42.926Z,93.60
2017-12-27T17:09:10.668Z,93.60
2017-12-27T17:11:38.336Z,93.70
2017-12-27T17:14:06.038Z,93.80
2017-12-27T17:16:33.689Z,93.80
2017-12-27T17:19:01.343Z,94.10
2017-12-27T17:21:29.039Z,94.10
2017-12-27T17:23:56.763Z,94.00
2017-12-27T17:26:24.593Z,94.00
2017-12-27T17:28:52.267Z,94.10
2017-12-27T17:31:19.899Z,94.00
2017-12-27T17:33:47.582Z,94.20
2017-12-27T17:36:16.041Z,94.20
2017-12-27T17:38:43.680Z,94.20
2017-12-27T17:41:12.034Z,94.20
2017-12-27T17:43:39.682Z,94.80
2017-12-27T17:46:07.293Z,94.40
2017-12-27T17:48:34.930Z,94.60
2017-12-27T17:51:03.369Z,94.80
2017-12-27T17:53:31.014Z,94.80
2017-12-27T17:55:59.479Z,94.90
2017-12-27T17:58:27.893Z,95.10
2017-12-27T18:00:55.684Z,95.10
2017-12-27T18:03:23.719Z,95.10
2017-12-27T18:05:51.433Z,95.00
2017-12-27T18:08:19.065Z,95.10
2017-12-27T18:10:46.754Z,95.30
2017-12-27T18:13:14.382Z,95.30
2017-12-27T18:15:44.031Z,95.40
2017-12-27T18:18:12.109Z,95.40
2017-12-27T18:20:39.853Z,95.50
2017-12-27T18:23:07.832Z,95.60
2017-12-27T18:25:35.522Z,95.60
2017-12-27T18:28:03.241Z,95.20
2017-12-27T18:30:30.920Z,95.40
2017-12-27T18:32:58.657Z,95.60
2017-12-27T18:35:26.424Z,95.60
2017-12-27T18:37:55.819Z,95.50
2017-12-27T18:40:23.637Z,95.50
2017-12-27T18:42:51.364Z,95.50
2017-12-27T18:45:19.367Z,95.70
2017-12-27T18:47:47.904Z,95.80
2017-12-27T18:50:15.592Z,95.70
2017-12-27T18:52:43.273Z,95.70
2017-12-27T18:55:10.920Z,95.60
2017-12-27T18:57:38.767Z,96.20
2017-12-27T19:00:06.455Z,96.00
2017-12-27T19:02:34.222Z,95.90
2017-12-27T19:05:01.884Z,95.90
2017-12-27T19:07:29.699Z,96.00
2017-12-27T19:09:58.119Z,96.00
2017-12-27T19:12:25.759Z,95.90
2017-12-27T19:14:54.252Z,96.00
2017-12-27T19:17:21.937Z,95.90
2017-12-27T19:19:49.571Z,96.10
2017-12-27T19:22:17.979Z,96.10
2017-12-27T19:24:45.651Z,96.10
2017-12-27T19:27:13.327Z,96.10
2017-12-27T19:29:41.008Z,96.10
2017-12-27T19:32:08.805Z,95.90
2017-12-27T19:34:36.933Z,96.00
2017-12-27T19:37:05.870Z,96.20
2017-12-27T19:39:33.601Z,96.20
2017-12-27T19:42:01.307Z,96.10
2017-12-27T19:44:29.060Z,96.40
2017-12-27T19:46:56.703Z,96.30
2017-12-27T19:49:25.368Z,96.50
2017-12-27T19:51:53.792Z,96.40
2017-12-27T19:54:21.492Z,96.40
2017-12-27T19:56:49.139Z,96.90
2017-12-27T19:59:16.868Z,97.00
2017-12-27T20:01:44.557Z,96.90
2017-12-27T20:04:12.241Z,96.90
2017-12-27T20:06:39.954Z,96.70
2017-12-27T20:09:07.630Z,96.80
2017-12-27T20:11:35.304Z,96.70
2017-12-27T20:14:03.113Z,96.70
2017-12-27T20:16:31.857Z,96.60
2017-12-27T20:18:59.518Z,96.70
2017-12-27T20:21:27.191Z,96.50
2017-12-27T20:23:55.234Z,96.50
2017-12-27T20:26:23.313Z,96.60
2017-12-27T20:28:51.115Z,96.40
2017-12-27T20:31:18.835Z,96.40
2017-12-27T20:33:46.502Z,96.10
2017-12-27T20:36:14.190Z,96.00
2017-12-27T20:38:41.955Z,96.10
2017-12-27T20:41:09.637Z,96.20
2017-12-27T20:43:37.285Z,95.90
2017-12-27T20:46:04.944Z,95.60
2017-12-27T20:48:32.706Z,95.50
2017-12-27T20:51:00.393Z,95.60
2017-12-27T20:53:28.376Z,95.90
2017-12-27T20:55:56.064Z,96.10
2017-12-27T20:58:23.741Z,96.20
2017-12-27T21:00:51.534Z,96.10
2017-12-27T21:03:20.030Z,96.10
2017-12-27T21:05:47.760Z,96.00
2017-12-27T21:08:15.449Z,95.90
2017-12-27T21:10:43.994Z,96.00
2017-12-27T21:13:11.673Z,96.00
2017-12-27T21:15:39.376Z,96.20
2017-12-27T21:18:07.818Z,96.00
2017-12-27T21:20:35.514Z,96.00
2017-12-27T21:23:03.196Z,95.90
2017-12-27T21:25:31.621Z,96.00
2017-12-27T21:27:59.331Z,95.90
2017-12-27T21:30:27.766Z,96.20
2017-12-27T21:32:55.460Z,96.20
2017-12-27T21:35:23.093Z,96.00
2017-12-27T21:37:50.881Z,96.30
2017-12-27T21:40:18.532Z,96.40
2017-12-27T21:42:46.212Z,96.40
2017-12-27T21:45:13.975Z,96.30
2017-12-27T21:47:47.457Z,96.20
2017-12-27T21:50:15.254Z,96.10
2017-12-27T21:52:42.907Z,95.90
2017-12-27T21:55:10.584Z,96.20
2017-12-27T21:57:38.242Z,96.10
2017-12-27T22:00:11.733Z,96.10
2017-12-27T22:02:39.421Z,96.20
2017-12-27T22:05:07.115Z,96.20
2017-12-27T22:07:34.893Z,96.10
2017-12-27T22:10:02.660Z,96.50
2017-12-27T22:12:30.299Z,96.40
2017-12-27T22:14:57.954Z,96.30
2017-12-27T22:17:25.626Z,96.10
2017-12-27T22:19:53.275Z,96.60
2017-12-27T22:22:21.338Z,96.30
2017-12-27T22:24:48.994Z,96.60
2017-12-27T22:27:18.214Z,96.60
2017-12-27T22:29:46.660Z,96.80
2017-12-27T22:32:14.533Z,96.80
2017-12-27T22:34:42.212Z,96.50
2017-12-27T22:37:09.840Z,96.20
2017-12-27T22:39:37.539Z,96.50
2017-12-27T22:42:05.184Z,96.80
2017-12-27T22:44:32.839Z,96.70
2017-12-27T22:47:00.531Z,96.90
2017-12-27T22:49:28.176Z,96.80
2017-12-27T22:51:56.072Z,97.30
2017-12-27T22:54:23.732Z,97.70
2017-12-27T22:56:51.452Z,97.50
2017-12-27T22:59:19.138Z,97.60
2017-12-27T23:01:46.842Z,97.80
2017-12-27T23:04:14.564Z,97.80
2017-12-27T23:06:42.289Z,98.20
2017-12-27T23:09:10.760Z,97.90
2017-12-27T23:11:38.414Z,97.90
2017-12-27T23:14:06.091Z,97.90
2017-12-27T23:16:33.764Z,98.20
2017-12-27T23:19:01.464Z,98.40
2017-12-27T23:21:29.889Z,98.40
2017-12-27T23:23:57.537Z,98.40
2017-12-27T23:26:25.230Z,98.10
2017-12-27T23:28:52.872Z,98.20
2017-12-27T23:31:20.564Z,98.10
2017-12-27T23:33:48.225Z,98.20
2017-12-27T23:36:15.915Z,98.50
2017-12-27T23:38:43.547Z,98.30
2017-12-27T23:41:11.200Z,98.40
2017-12-27T23:43:38.875Z,98.40
2017-12-27T23:46:06.775Z,98.40
2017-12-27T23:48:34.476Z,98.40
2017-12-27T23:51:02.896Z,98.60
2017-12-27T23:53:30.568Z,98.60
2017-12-27T23:55:59.083Z,98.60
2017-12-27T23:58:26.767Z,98.60
